Time;durP1;ratioP1;P1;durP2;ratioP2;P2;SDS_P1;SDS_P2;PMS_P1;PMS_P2;Temp;Humidity;BMP_temperature;BMP_pressure;BME280_temperature;BME280_humidity;BME280_pressure;Samples;Min_cycle;Max_cycle;Signal;HPM_P1;HPM_P2
2022/12/09 00:00:29;;;;;;;28.95;15.15;;;;;;;-143.48;87.85;118439.88;5033393;28;20044;-65
2022/12/09 00:02:54;;;;;;;27.25;14.73;;;;;;;-143.48;87.39;118439.88;5033464;28;20027;-64
2022/12/09 00:05:19;;;;;;;26.85;13.63;;;;;;;-143.48;87.12;118439.88;5033396;28;20026;-62
2022/12/09 00:07:45;;;;;;;26.05;14.23;;;;;;;-143.48;87.39;118439.88;5033880;28;20025;-63
2022/12/09 00:10:10;;;;;;;26.48;14.95;;;;;;;-143.48;87.20;118439.88;5031981;28;20064;-64
2022/12/09 00:12:35;;;;;;;27.73;14.75;;;;;;;-143.48;85.76;118439.88;5035438;28;20074;-63
2022/12/09 00:15:01;;;;;;;25.52;13.80;;;;;;;-143.48;86.50;118439.88;5037026;28;20052;-63
2022/12/09 00:17:26;;;;;;;24.20;13.52;;;;;;;-143.48;86.58;118439.88;5035781;28;20022;-64
2022/12/09 00:19:51;;;;;;;25.00;13.82;;;;;;;-143.48;87.33;118439.88;5037245;28;20026;-64
2022/12/09 00:22:17;;;;;;;23.98;13.05;;;;;;;-143.48;87.25;118439.88;5037124;28;20033;-64
2022/12/09 00:24:42;;;;;;;23.50;12.05;;;;;;;-143.48;87.02;118439.88;5037027;28;20021;-63
2022/12/09 00:27:07;;;;;;;20.95;11.77;;;;;;;-143.48;86.06;118439.88;5037131;28;20453;-64
2022/12/09 00:29:32;;;;;;;22.75;13.40;;;;;;;-143.48;85.10;118439.88;5035623;28;20453;-63
2022/12/09 00:31:58;;;;;;;22.15;12.85;;;;;;;-143.48;84.89;118439.88;5037106;28;20034;-64
2022/12/09 00:34:23;;;;;;;27.52;14.20;;;;;;;-143.48;85.25;118439.88;5035647;28;20025;-63
2022/12/09 00:36:48;;;;;;;26.02;13.82;;;;;;;-143.48;86.32;118439.88;5037037;28;20030;-63
2022/12/09 00:39:14;;;;;;;27.80;15.27;;;;;;;-143.48;86.56;118439.88;5035719;28;20018;-63
2022/12/09 00:41:39;;;;;;;26.88;15.48;;;;;;;-143.48;85.78;118439.88;5035372;28;20021;-63
2022/12/09 00:44:04;;;;;;;28.70;14.63;;;;;;;-143.48;86.82;118439.88;5036692;28;20025;-64
2022/12/09 00:46:30;;;;;;;28.55;14.98;;;;;;;-143.48;86.52;118439.88;5036690;28;20104;-64
2022/12/09 00:48:55;;;;;;;24.70;14.30;;;;;;;-143.48;86.41;118439.88;5036572;28;20025;-63
2022/12/09 00:51:23;;;;;;;29.15;14.43;;;;;;;-143.48;87.18;118439.88;5036489;28;20040;-64
2022/12/09 00:53:53;;;;;;;30.90;15.00;;;;;;;-143.48;86.71;118439.88;5036678;28;20037;-64
2022/12/09 00:56:19;;;;;;;30.95;15.02;;;;;;;-143.48;86.84;118439.88;5036260;28;20045;-64
2022/12/09 00:58:44;;;;;;;32.55;15.68;;;;;;;-143.48;86.27;118439.88;5036370;28;20499;-64
2022/12/09 01:01:09;;;;;;;29.60;15.27;;;;;;;-143.48;87.63;118439.88;5036409;28;20029;-64
2022/12/09 01:03:35;;;;;;;25.90;15.23;;;;;;;-143.48;87.61;118439.88;5036593;28;20465;-63
2022/12/09 01:06:00;;;;;;;29.55;14.93;;;;;;;-143.48;87.83;118439.88;5036411;28;20047;-63
2022/12/09 01:08:25;;;;;;;29.80;14.50;;;;;;;-143.48;87.63;118439.88;5035023;28;20477;-62
2022/12/09 01:10:51;;;;;;;31.40;15.13;;;;;;;-143.48;87.57;118439.88;5036387;28;20029;-61
2022/12/09 01:13:16;;;;;;;28.48;14.30;;;;;;;-143.48;87.70;118439.88;5036098;28;20139;-62
2022/12/09 01:15:42;;;;;;;30.38;14.38;;;;;;;-143.48;87.34;118439.88;5034780;28;20469;-62
2022/12/09 01:18:08;;;;;;;28.52;14.05;;;;;;;-143.48;87.90;118439.88;5036284;28;20358;-63
2022/12/09 01:20:34;;;;;;;28.85;13.90;;;;;;;-143.48;89.03;118439.88;5036104;28;20136;-63
2022/12/09 01:23:00;;;;;;;27.52;13.70;;;;;;;-143.48;88.84;118439.88;5035525;28;20030;-62
2022/12/09 01:25:25;;;;;;;27.90;14.25;;;;;;;-143.48;89.28;118439.88;5035930;28;20083;-63
2022/12/09 01:27:51;;;;;;;30.88;13.88;;;;;;;-143.48;89.63;118439.88;5036255;28;20416;-61
2022/12/09 01:30:16;;;;;;;28.92;13.85;;;;;;;-143.48;89.29;118439.88;5035922;28;20067;-62
2022/12/09 01:32:42;;;;;;;26.42;13.68;;;;;;;-143.48;88.61;118439.88;5035908;28;20040;-62
2022/12/09 01:35:08;;;;;;;25.45;11.90;;;;;;;-143.48;88.48;118439.88;5035825;28;20052;-62
2022/12/09 01:37:34;;;;;;;26.30;13.10;;;;;;;-143.48;88.82;118439.88;5035975;28;20035;-63
2022/12/09 01:40:00;;;;;;;26.38;13.32;;;;;;;-143.48;88.80;118439.88;5035754;28;20084;-62
2022/12/09 01:42:26;;;;;;;23.67;12.38;;;;;;;-143.48;88.25;118439.88;5035532;28;20018;-62
2022/12/09 01:45:19;;;;;;;23.40;11.98;;;;;;;-143.48;88.07;118439.88;5035755;28;20028;-62
2022/12/09 01:47:46;;;;;;;24.42;12.88;;;;;;;-143.48;88.01;118439.88;5035737;28;20029;-62
2022/12/09 01:50:12;;;;;;;24.17;11.95;;;;;;;-143.48;88.15;118439.88;5035501;28;20110;-63
2022/12/09 01:52:37;;;;;;;25.30;12.23;;;;;;;-143.48;87.58;118439.88;5034170;28;20071;-62
2022/12/09 01:55:03;;;;;;;24.50;12.30;;;;;;;-143.48;87.44;118439.88;5035487;28;20109;-64
2022/12/09 01:57:28;;;;;;;25.17;12.75;;;;;;;-143.48;87.44;118439.88;5033861;28;20405;-62
2022/12/09 01:59:54;;;;;;;24.60;12.82;;;;;;;-143.48;87.61;118439.88;5035547;28;20021;-62
2022/12/09 02:02:20;;;;;;;27.92;14.25;;;;;;;-143.48;87.24;118439.88;5035294;28;20091;-62
2022/12/09 02:04:47;;;;;;;30.70;14.93;;;;;;;-143.48;88.52;118439.88;5035269;28;20029;-62
2022/12/09 02:07:13;;;;;;;30.15;14.90;;;;;;;-143.48;89.79;118439.88;5035285;28;20029;-62
2022/12/09 02:09:39;;;;;;;35.25;14.77;;;;;;;-143.48;89.92;118439.88;5035432;28;20024;-62
2022/12/09 02:12:19;;;;;;;32.65;14.40;;;;;;;-143.48;90.32;118439.88;5035133;28;20061;-63
2022/12/09 02:15:02;;;;;;;37.60;14.98;;;;;;;-143.48;90.95;118439.88;5035134;28;20370;-63
2022/12/09 02:17:45;;;;;;;55.60;16.10;;;;;;;-143.48;90.34;118439.88;5035132;28;20037;-63
2022/12/09 02:20:30;;;;;;;73.70;15.80;;;;;;;-143.48;90.33;118439.88;5035060;28;20027;-63
2022/12/09 02:23:29;;;;;;;59.50;16.05;;;;;;;-143.48;90.14;118439.88;5035220;28;20041;-63
2022/12/09 02:26:04;;;;;;;43.00;15.73;;;;;;;-143.48;90.71;118439.88;5034971;28;20024;-61
2022/12/09 02:28:54;;;;;;;64.30;14.95;;;;;;;-143.48;90.89;118439.88;5035138;28;20033;-64
2022/12/09 02:31:25;;;;;;;61.95;15.93;;;;;;;-143.48;91.02;118439.88;5034837;28;20105;-61
2022/12/09 02:34:02;;;;;;;39.65;15.90;;;;;;;-143.48;91.28;118439.88;5034320;28;20044;-62
2022/12/09 02:36:34;;;;;;;36.63;14.82;;;;;;;-143.48;91.33;118439.88;5034343;28;20026;-62
2022/12/09 02:38:59;;;;;;;31.75;14.65;;;;;;;-143.48;90.88;118439.88;5034718;28;20381;-62
2022/12/09 02:41:28;;;;;;;38.88;16.10;;;;;;;-143.48;90.25;118439.88;5034644;28;20036;-61
2022/12/09 02:44:10;;;;;;;32.42;14.70;;;;;;;-143.48;90.52;118439.88;5034395;28;20097;-63
2022/12/09 02:46:36;;;;;;;31.65;14.68;;;;;;;-143.48;90.12;118439.88;5034667;28;20485;-63
2022/12/09 02:49:03;;;;;;;29.95;14.90;;;;;;;-143.48;89.86;118439.88;5034589;28;20446;-62
2022/12/09 02:51:32;;;;;;;30.75;15.00;;;;;;;-143.48;89.78;118439.88;5034367;28;20025;-63
2022/12/09 02:54:04;;;;;;;32.28;15.23;;;;;;;-143.48;89.70;118439.88;5034309;28;20087;-63
2022/12/09 02:56:31;;;;;;;31.77;16.15;;;;;;;-143.48;89.26;118439.88;5033823;28;20440;-63
2022/12/09 02:58:57;;;;;;;33.17;16.30;;;;;;;-143.48;88.95;118439.88;5034275;28;20111;-63
2022/12/09 03:01:28;;;;;;;30.80;15.65;;;;;;;-143.48;88.89;118439.88;5034317;28;20416;-63
2022/12/09 03:03:54;;;;;;;29.63;15.27;;;;;;;-143.48;88.76;118439.88;5034060;28;20104;-62
2022/12/09 03:06:26;;;;;;;36.30;16.20;;;;;;;-143.48;88.77;118439.88;5034274;28;20409;-63
2022/12/09 03:08:53;;;;;;;33.53;15.85;;;;;;;-143.48;89.26;118439.88;5032784;28;20029;-63
2022/12/09 03:11:21;;;;;;;34.05;15.95;;;;;;;-143.48;89.08;118439.88;5034119;28;20094;-63
2022/12/09 03:14:05;;;;;;;30.77;15.10;;;;;;;-143.48;88.86;118439.88;5032813;28;20036;-63
2022/12/09 03:16:41;;;;;;;31.42;14.93;;;;;;;-143.48;89.06;118439.88;5033937;28;20030;-63
2022/12/09 03:19:15;;;;;;;27.92;14.57;;;;;;;-143.48;88.95;118439.88;5034003;28;20025;-63
2022/12/09 03:21:44;;;;;;;31.90;16.02;;;;;;;-143.48;89.36;118439.88;5033791;28;20069;-63
2022/12/09 03:24:13;;;;;;;30.10;15.48;;;;;;;-143.48;89.19;118439.88;5033994;28;20025;-63
2022/12/09 03:26:41;;;;;;;34.30;15.77;;;;;;;-143.48;89.13;118439.88;5033806;28;20022;-63
2022/12/09 03:29:12;;;;;;;31.02;15.00;;;;;;;-143.48;88.93;118439.88;5033651;28;20442;-63
2022/12/09 03:31:38;;;;;;;32.13;15.40;;;;;;;-143.48;89.08;118439.88;5033769;28;20021;-64
2022/12/09 03:34:08;;;;;;;33.60;16.42;;;;;;;-143.48;89.51;118439.88;5033769;28;20539;-63
2022/12/09 03:36:37;;;;;;;33.97;15.65;;;;;;;-143.48;89.57;118439.88;5033938;28;20061;-64
2022/12/09 03:39:06;;;;;;;34.30;15.20;;;;;;;-143.48;89.10;118439.88;5033662;28;20021;-63
2022/12/09 03:41:32;;;;;;;32.03;15.27;;;;;;;-143.48;88.94;118439.88;5033586;28;20513;-63
2022/12/09 03:44:05;;;;;;;29.48;14.93;;;;;;;-143.48;88.35;118439.88;5033592;28;20057;-63
2022/12/09 03:46:30;;;;;;;34.72;16.08;;;;;;;-143.48;88.27;118439.88;5033588;28;20025;-62
2022/12/09 03:48:56;;;;;;;32.78;15.48;;;;;;;-143.48;88.17;118439.88;5033273;28;20022;-62
2022/12/09 03:51:30;;;;;;;34.65;15.77;;;;;;;-143.48;88.63;118439.88;5033312;28;20064;-62
2022/12/09 03:54:07;;;;;;;30.33;15.00;;;;;;;-143.48;88.56;118439.88;5033219;28;20030;-62
2022/12/09 03:56:38;;;;;;;33.78;15.48;;;;;;;-143.48;88.93;118439.88;5033252;28;20048;-62
2022/12/09 03:59:09;;;;;;;32.28;14.68;;;;;;;-143.48;88.59;118439.88;5033681;28;20025;-62
2022/12/09 04:01:35;;;;;;;30.27;14.50;;;;;;;-143.48;88.67;118439.88;5033571;28;20126;-63
2022/12/09 04:04:00;;;;;;;31.48;14.57;;;;;;;-143.48;88.56;118439.88;5033457;28;20030;-62
2022/12/09 04:06:25;;;;;;;31.15;14.93;;;;;;;-143.48;88.34;118439.88;5033329;28;20013;-63
2022/12/09 04:08:51;;;;;;;31.35;14.15;;;;;;;-143.48;88.32;118439.88;5033200;28;20079;-62
2022/12/09 04:11:16;;;;;;;30.65;14.13;;;;;;;-143.48;88.84;118439.88;5033370;28;20455;-69
2022/12/09 04:13:42;;;;;;;32.15;15.32;;;;;;;-143.48;88.88;118439.88;5033301;28;20025;-69
2022/12/09 04:16:08;;;;;;;30.48;14.95;;;;;;;-143.48;88.80;118439.88;5033301;28;20030;-69
2022/12/09 04:18:34;;;;;;;29.00;14.38;;;;;;;-143.48;88.39;118439.88;5033291;28;20101;-69
2022/12/09 04:20:59;;;;;;;29.33;14.43;;;;;;;-143.48;88.10;118439.88;5033175;28;20041;-69
2022/12/09 04:23:24;;;;;;;30.50;15.27;;;;;;;-143.48;88.54;118439.88;5033159;28;20067;-68
2022/12/09 04:25:49;;;;;;;37.83;14.98;;;;;;;-143.48;88.29;118439.88;5033164;28;20496;-69
2022/12/09 04:28:15;;;;;;;32.15;15.50;;;;;;;-143.48;88.82;118439.88;5033339;28;20113;-69
2022/12/09 04:30:46;;;;;;;31.67;13.55;;;;;;;-143.48;88.24;118439.88;5033356;28;20524;-69
2022/12/09 04:33:12;;;;;;;30.88;14.32;;;;;;;-143.48;88.74;118439.88;5033186;28;20028;-69
2022/12/09 04:35:37;;;;;;;29.95;13.77;;;;;;;-143.48;88.57;118439.88;5032963;28;20021;-69
2022/12/09 04:38:02;;;;;;;31.08;14.73;;;;;;;-143.48;88.77;118439.88;5033346;28;20414;-69
2022/12/09 04:40:27;;;;;;;30.38;13.88;;;;;;;-143.48;88.58;118439.88;5033265;28;20391;-68
2022/12/09 04:42:53;;;;;;;28.67;13.48;;;;;;;-143.48;88.22;118439.88;5032934;28;20061;-68
2022/12/09 04:45:18;;;;;;;33.13;14.48;;;;;;;-143.48;88.36;118439.88;5032988;28;20018;-68
2022/12/09 04:47:43;;;;;;;29.83;14.43;;;;;;;-143.48;88.14;118439.88;5032929;28;20325;-68
2022/12/09 04:50:09;;;;;;;33.20;14.93;;;;;;;-143.48;88.12;118439.88;5032396;28;20033;-68
2022/12/09 04:52:34;;;;;;;30.83;14.98;;;;;;;-143.48;88.48;118439.88;5031651;28;20029;-69
2022/12/09 04:55:00;;;;;;;28.60;13.65;;;;;;;-143.48;87.99;118439.88;5031382;28;20499;-68
2022/12/09 04:57:25;;;;;;;28.27;13.85;;;;;;;-143.48;87.86;118439.88;5031762;28;20046;-69
2022/12/09 04:59:50;;;;;;;29.58;14.77;;;;;;;-143.48;88.40;118439.88;5035298;28;20029;-69
2022/12/09 05:02:15;;;;;;;29.17;13.75;;;;;;;-143.48;88.25;118439.88;5035395;28;20021;-69
2022/12/09 05:04:41;;;;;;;31.35;14.88;;;;;;;-143.48;88.14;118439.88;5035557;28;20026;-69
2022/12/09 05:07:07;;;;;;;30.95;14.68;;;;;;;-143.48;88.09;118439.88;5035741;28;20033;-69
2022/12/09 05:09:32;;;;;;;29.60;14.15;;;;;;;-143.48;88.97;118439.88;5037245;28;20028;-69
2022/12/09 05:11:58;;;;;;;29.98;15.15;;;;;;;-143.48;89.19;118439.88;5037533;28;20029;-70
2022/12/09 05:14:23;;;;;;;32.47;15.13;;;;;;;-143.48;88.91;118439.88;5037868;28;20461;-69
2022/12/09 05:16:48;;;;;;;38.10;14.68;;;;;;;-143.48;88.48;118439.88;5037550;28;20072;-69
2022/12/09 05:19:14;;;;;;;32.05;14.95;;;;;;;-143.48;88.35;118439.88;5038150;28;20364;-69
2022/12/09 05:21:39;;;;;;;29.08;13.65;;;;;;;-143.48;88.85;118439.88;5038055;28;20116;-69
2022/12/09 05:24:05;;;;;;;30.80;13.98;;;;;;;-143.48;88.39;118439.88;5037635;28;20095;-69
2022/12/09 05:26:30;;;;;;;29.55;13.88;;;;;;;-143.48;88.64;118439.88;5038254;28;20021;-70
2022/12/09 05:28:56;;;;;;;31.15;14.82;;;;;;;-143.48;88.71;118439.88;5049469;28;20036;-70
2022/12/09 05:31:22;;;;;;;32.53;14.68;;;;;;;-143.48;88.37;118439.88;5050214;28;20085;-70
2022/12/09 05:33:48;;;;;;;30.17;14.40;;;;;;;-143.48;88.15;118439.88;5051070;28;20034;-70
2022/12/09 05:36:16;;;;;;;30.50;14.07;;;;;;;-143.48;88.40;118439.88;5051284;28;20032;-70
2022/12/09 05:38:41;;;;;;;30.15;14.23;;;;;;;-143.48;88.03;118439.88;5052127;28;20032;-69
2022/12/09 05:41:07;;;;;;;28.92;13.35;;;;;;;-143.48;88.33;118439.88;5051602;28;20029;-72
2022/12/09 05:43:33;;;;;;;30.05;14.00;;;;;;;-143.48;88.38;118439.88;5047882;28;20429;-70
2022/12/09 05:46:00;;;;;;;27.58;13.30;;;;;;;-143.48;88.22;118439.88;5040011;28;20028;-70
2022/12/09 05:48:25;;;;;;;28.75;13.35;;;;;;;-143.48;87.92;118439.88;5039605;28;20021;-70
2022/12/09 05:51:04;;;;;;;28.02;14.23;;;;;;;-143.48;87.71;118439.88;5038677;28;20028;-70
2022/12/09 05:53:29;;;;;;;31.55;13.98;;;;;;;-143.48;87.35;118439.88;5037158;28;20040;-70
2022/12/09 05:55:54;;;;;;;28.73;14.93;;;;;;;-143.48;87.48;118439.88;5038676;28;20021;-70
2022/12/09 05:58:21;;;;;;;27.10;12.23;;;;;;;-143.48;87.32;118439.88;5038505;28;20026;-71
2022/12/09 06:00:47;;;;;;;29.33;13.20;;;;;;;-143.48;87.38;118439.88;5038443;28;20581;-69
2022/12/09 06:03:12;;;;;;;30.52;14.63;;;;;;;-143.48;87.41;118439.88;5037240;28;20017;-69
2022/12/09 06:05:38;;;;;;;30.92;14.63;;;;;;;-143.48;87.29;118439.88;5036485;28;20085;-69
2022/12/09 06:08:04;;;;;;;30.40;13.93;;;;;;;-143.48;87.17;118439.88;5036613;28;20077;-69
2022/12/09 06:10:30;;;;;;;28.15;13.40;;;;;;;-143.48;87.47;118439.88;5034755;28;20044;-69
2022/12/09 06:12:56;;;;;;;29.98;13.93;;;;;;;-143.48;87.57;118439.88;5035556;28;20022;-70
2022/12/09 06:15:22;;;;;;;28.73;13.68;;;;;;;-143.48;86.87;118439.88;5035518;28;20033;-69
2022/12/09 06:17:48;;;;;;;29.33;13.30;;;;;;;-143.48;87.37;118439.88;5040959;28;20039;-70
2022/12/09 06:20:13;;;;;;;35.15;14.13;;;;;;;-143.48;87.49;118439.88;5040450;28;20113;-71
2022/12/09 06:22:38;;;;;;;29.70;13.38;;;;;;;-143.48;87.08;118439.88;5037658;28;20036;-70
2022/12/09 06:25:04;;;;;;;29.85;13.80;;;;;;;-143.48;87.19;118439.88;5036684;28;20013;-70
2022/12/09 06:27:30;;;;;;;30.85;13.77;;;;;;;-143.48;87.71;118439.88;5040767;28;20048;-69
2022/12/09 06:29:55;;;;;;;39.35;13.95;;;;;;;-143.48;87.71;118439.88;5039859;28;20029;-62
2022/12/09 06:32:21;;;;;;;31.58;14.13;;;;;;;-143.48;87.27;118439.88;5039702;28;20037;-63
2022/12/09 06:34:46;;;;;;;29.35;13.75;;;;;;;-143.48;87.15;118439.88;5038805;28;20029;-68
2022/12/09 06:37:14;;;;;;;33.13;13.50;;;;;;;-143.48;86.90;118439.88;5038688;28;20477;-65
2022/12/09 06:39:39;;;;;;;29.13;13.20;;;;;;;-143.48;87.07;118439.88;5038685;28;20017;-64
2022/12/09 06:42:05;;;;;;;29.27;13.90;;;;;;;-143.48;87.06;118439.88;5037350;28;20040;-65
2022/12/09 06:44:30;;;;;;;32.63;13.98;;;;;;;-143.48;87.15;118439.88;5037833;28;20052;-63
2022/12/09 06:46:56;;;;;;;29.58;13.82;;;;;;;-143.48;87.29;118439.88;5036958;28;20022;-64
2022/12/09 06:49:21;;;;;;;29.33;13.38;;;;;;;-143.48;87.30;118439.88;5037962;28;20025;-63
2022/12/09 06:51:47;;;;;;;33.67;14.05;;;;;;;-143.48;87.42;118439.88;5038119;28;20112;-64
2022/12/09 06:54:12;;;;;;;30.20;13.95;;;;;;;-143.48;87.53;118439.88;5034351;28;20047;-63
2022/12/09 06:56:37;;;;;;;33.28;14.40;;;;;;;-143.48;87.33;118439.88;5032914;28;20046;-62
2022/12/09 06:59:08;;;;;;;30.10;13.85;;;;;;;-143.48;87.39;118439.88;5035075;28;20026;-64
2022/12/09 07:01:36;;;;;;;32.40;13.57;;;;;;;-143.48;87.60;118439.88;5034285;28;20036;-62
2022/12/09 07:04:03;;;;;;;30.20;14.25;;;;;;;-143.48;87.87;118439.88;5034854;28;20021;-63
2022/12/09 07:06:32;;;;;;;34.55;14.95;;;;;;;-143.48;87.67;118439.88;5034189;28;20022;-64
2022/12/09 07:09:01;;;;;;;32.10;14.82;;;;;;;-143.48;87.52;118439.88;5034085;28;20167;-64
2022/12/09 07:11:27;;;;;;;31.75;13.60;;;;;;;-143.48;88.10;118439.88;5034069;28;20022;-64
2022/12/09 07:13:52;;;;;;;33.10;14.57;;;;;;;-143.48;88.46;118439.88;5032934;28;20029;-62
2022/12/09 07:16:18;;;;;;;31.48;15.05;;;;;;;-143.48;87.42;118439.88;5035615;28;20560;-64
2022/12/09 07:18:44;;;;;;;35.50;14.30;;;;;;;-143.48;87.58;118439.88;5036271;28;20025;-64
2022/12/09 07:21:15;;;;;;;32.55;15.55;;;;;;;-143.48;87.49;118439.88;5033554;28;20112;-63
2022/12/09 07:23:41;;;;;;;34.78;15.35;;;;;;;-143.48;87.74;118439.88;5034041;28;20025;-64
2022/12/09 07:26:06;;;;;;;29.63;14.15;;;;;;;-143.48;87.24;118439.88;5034198;28;20480;-79
2022/12/09 07:28:33;;;;;;;30.77;13.68;;;;;;;-143.48;86.27;118439.88;5034625;28;20057;-79
2022/12/09 07:30:59;;;;;;;28.60;13.60;;;;;;;-143.48;85.52;118439.88;5034538;28;20108;-79
2022/12/09 07:33:24;;;;;;;31.08;14.27;;;;;;;-143.48;86.25;118439.88;5036254;28;20064;-80
2022/12/09 07:35:53;;;;;;;35.40;13.75;;;;;;;-143.48;86.70;118439.88;5035057;28;20033;-80
2022/12/09 07:38:19;;;;;;;28.88;14.00;;;;;;;-143.48;87.10;118439.88;5035311;28;20103;-69
2022/12/09 07:40:44;;;;;;;32.22;13.98;;;;;;;-143.48;86.45;118439.88;5032610;28;20426;-69
2022/12/09 07:43:09;;;;;;;28.83;13.57;;;;;;;-143.48;86.38;118439.88;5034283;28;20025;-69
2022/12/09 07:45:36;;;;;;;30.08;13.18;;;;;;;-143.48;85.99;118439.88;5032671;28;20045;-69
2022/12/09 07:48:01;;;;;;;30.85;13.85;;;;;;;-143.48;85.95;118439.88;5034335;28;20495;-79
2022/12/09 07:50:26;;;;;;;31.42;14.18;;;;;;;-143.48;86.46;118439.88;5035367;28;20029;-81
2022/12/09 07:52:52;;;;;;;31.15;13.52;;;;;;;-143.48;86.24;118439.88;5037182;28;20029;-80
2022/12/09 07:55:18;;;;;;;32.30;14.77;;;;;;;-143.48;86.56;118439.88;5035565;28;20061;-78
2022/12/09 07:57:43;;;;;;;31.20;14.52;;;;;;;-143.48;87.24;118439.88;5034787;28;20095;-80
2022/12/09 08:00:09;;;;;;;31.15;15.00;;;;;;;-143.48;87.00;118439.88;5034498;28;20021;-79
2022/12/09 08:02:34;;;;;;;37.63;16.48;;;;;;;-143.48;86.43;118439.88;5044242;28;20033;-81
2022/12/09 08:05:00;;;;;;;35.50;15.93;;;;;;;-143.48;86.39;118439.88;5040379;28;20025;-81
2022/12/09 08:07:26;;;;;;;38.88;16.75;;;;;;;-143.48;87.16;118439.88;5038714;28;20025;-81
2022/12/09 08:09:53;;;;;;;32.10;15.05;;;;;;;-143.48;86.79;118439.88;5040440;28;20079;-81
2022/12/09 08:12:18;;;;;;;39.15;16.77;;;;;;;-143.48;86.09;118439.88;5038273;28;20333;-81
2022/12/09 08:14:43;;;;;;;39.42;18.13;;;;;;;-143.48;85.72;118439.88;5038238;28;20037;-81
2022/12/09 08:17:09;;;;;;;40.65;17.17;;;;;;;-143.48;86.01;118439.88;5036835;28;20025;-78
2022/12/09 08:19:34;;;;;;;41.28;17.23;;;;;;;-143.48;85.72;118439.88;5037950;28;20191;-79
2022/12/09 08:21:59;;;;;;;37.75;17.52;;;;;;;-143.48;85.33;118439.88;5038306;28;20026;-81
2022/12/09 08:24:25;;;;;;;39.97;16.38;;;;;;;-143.48;84.89;118439.88;5038835;28;20029;-80
2022/12/09 08:26:50;;;;;;;39.92;16.30;;;;;;;-143.48;85.06;118439.88;5036791;28;20049;-79
2022/12/09 08:29:15;;;;;;;41.72;17.42;;;;;;;-143.48;86.17;118439.88;5035264;28;20030;-79
2022/12/09 08:31:42;;;;;;;36.25;16.38;;;;;;;-143.48;85.49;118439.88;5035968;28;20025;-79
2022/12/09 08:34:07;;;;;;;39.45;17.05;;;;;;;-143.48;84.93;118439.88;5037364;28;20029;-79
2022/12/09 08:36:33;;;;;;;37.13;16.90;;;;;;;-143.48;85.22;118439.88;5039940;28;20056;-80
2022/12/09 08:39:00;;;;;;;40.88;19.23;;;;;;;-143.48;84.83;118439.88;5039741;28;20114;-79
2022/12/09 08:41:34;;;;;;;48.40;20.33;;;;;;;-143.48;84.45;118439.88;5042569;28;20036;-78
2022/12/09 08:44:20;;;;;;;49.28;19.60;;;;;;;-143.48;83.48;118439.88;5043585;28;20040;-78
2022/12/09 08:46:48;;;;;;;40.30;18.45;;;;;;;-143.48;83.98;118439.88;5045472;28;20045;-80
2022/12/09 08:49:18;;;;;;;43.50;19.30;;;;;;;-143.48;83.92;118439.88;5039985;28;20022;-80
2022/12/09 08:51:44;;;;;;;42.92;19.65;;;;;;;-143.48;84.33;118439.88;5040137;28;20036;-78
2022/12/09 08:54:10;;;;;;;40.08;19.35;;;;;;;-143.48;85.27;118439.88;5039997;28;20472;-80
2022/12/09 08:56:36;;;;;;;41.33;19.58;;;;;;;-143.48;84.79;118439.88;5040617;28;20046;-79
2022/12/09 08:59:02;;;;;;;40.95;20.30;;;;;;;-143.48;85.41;118439.88;5038440;28;20108;-79
2022/12/09 09:01:33;;;;;;;46.33;21.45;;;;;;;-143.48;84.21;118439.88;5039754;28;20026;-79
2022/12/09 09:04:00;;;;;;;42.28;20.15;;;;;;;-143.48;84.26;118439.88;5037162;28;20458;-79
2022/12/09 09:06:26;;;;;;;45.60;19.90;;;;;;;-143.48;84.30;118439.88;5037397;28;20021;-80
2022/12/09 09:08:51;;;;;;;44.00;21.13;;;;;;;-143.48;84.54;118439.88;5038540;28;20464;-79
2022/12/09 09:11:19;;;;;;;47.10;21.80;;;;;;;-143.48;84.63;118439.88;5041757;28;20523;-80
2022/12/09 09:13:47;;;;;;;44.00;20.85;;;;;;;-143.48;84.00;118439.88;5037494;28;20079;-79
2022/12/09 09:16:19;;;;;;;47.17;22.17;;;;;;;-143.48;83.55;118439.88;5035893;28;20079;-80
2022/12/09 09:18:44;;;;;;;47.63;21.80;;;;;;;-143.48;83.67;118439.88;5036900;28;20021;-80
2022/12/09 09:21:12;;;;;;;45.88;22.15;;;;;;;-143.48;84.38;118439.88;5036045;28;20036;-81
2022/12/09 09:23:39;;;;;;;50.55;22.17;;;;;;;-143.48;83.73;118439.88;5037688;28;20040;-82
2022/12/09 09:26:09;;;;;;;48.35;22.02;;;;;;;-143.48;82.83;118439.88;5041828;28;20123;-78
2022/12/09 09:28:34;;;;;;;47.55;22.48;;;;;;;-143.48;83.64;118439.88;5043591;28;20099;-81
2022/12/09 09:31:04;;;;;;;46.13;21.98;;;;;;;-143.48;83.09;118439.88;5044367;28;20056;-77
2022/12/09 09:33:30;;;;;;;48.28;22.52;;;;;;;-143.48;82.70;118439.88;5050663;28;20025;-80
2022/12/09 09:35:57;;;;;;;47.90;22.15;;;;;;;-143.48;83.68;118439.88;5055800;28;20021;-80
2022/12/09 09:38:23;;;;;;;48.05;21.42;;;;;;;-143.48;83.69;118439.88;5049613;28;20022;-80
2022/12/09 09:40:48;;;;;;;48.13;21.48;;;;;;;-143.48;85.20;118439.88;5049750;28;20052;-80
2022/12/09 09:43:19;;;;;;;56.20;20.77;;;;;;;-143.48;85.94;118439.88;5051325;28;20025;-80
2022/12/09 09:45:45;;;;;;;107.22;21.27;;;;;;;-143.48;86.41;118439.88;5050423;28;20029;-81
2022/12/09 09:48:16;;;;;;;100.35;21.77;;;;;;;-143.48;87.15;118439.88;5049659;28;20081;-81
2022/12/09 09:50:50;;;;;;;56.20;22.05;;;;;;;-143.48;87.22;118439.88;5048710;28;20024;-80
2022/12/09 09:53:22;;;;;;;85.90;20.77;;;;;;;-143.48;86.58;118439.88;5050114;28;20389;-81
2022/12/09 09:55:58;;;;;;;101.10;20.40;;;;;;;-143.48;87.50;118439.88;5050109;28;20112;-81
2022/12/09 09:58:52;;;;;;;109.25;20.67;;;;;;;-143.48;86.22;118439.88;5050898;28;20077;-79
2022/12/09 10:01:18;;;;;;;53.30;20.15;;;;;;;-143.48;86.48;118439.88;5052854;28;20079;-80
2022/12/09 10:04:17;;;;;;;70.22;19.75;;;;;;;-143.48;86.27;118439.88;5053318;28;20087;-78
2022/12/09 10:07:00;;;;;;;79.20;20.67;;;;;;;-143.48;86.69;118439.88;5050846;28;20029;-79
2022/12/09 10:09:32;;;;;;;66.50;21.05;;;;;;;-143.48;86.17;118439.88;5054786;28;20055;-78
2022/12/09 10:12:05;;;;;;;83.93;20.63;;;;;;;-143.48;85.53;118439.88;5049821;28;20033;-76
2022/12/09 10:15:03;;;;;;;56.00;21.70;;;;;;;-143.48;85.36;118439.88;5051002;28;20025;-77
2022/12/09 10:17:40;;;;;;;63.85;20.75;;;;;;;-143.48;85.52;118439.88;5041097;28;20038;-78
2022/12/09 10:20:11;;;;;;;50.95;20.92;;;;;;;-143.48;84.45;118439.88;5049415;28;20025;-78
2022/12/09 10:22:45;;;;;;;45.83;20.48;;;;;;;-143.48;83.75;118439.88;5049333;28;20036;-79
2022/12/09 10:25:19;;;;;;;49.50;21.35;;;;;;;-143.48;83.66;118439.88;5048585;28;20307;-78
2022/12/09 10:27:55;;;;;;;46.30;20.55;;;;;;;-143.48;83.62;118439.88;5049912;28;20077;-78
2022/12/09 10:30:21;;;;;;;48.75;21.38;;;;;;;-143.48;83.76;118439.88;5050767;28;20060;-78
2022/12/09 10:32:47;;;;;;;46.05;20.50;;;;;;;-143.48;84.11;118439.88;5053501;28;20025;-79
2022/12/09 10:35:35;;;;;;;53.05;21.10;;;;;;;-143.48;85.46;118439.88;5050336;28;20075;-79
2022/12/09 10:38:13;;;;;;;46.63;19.73;;;;;;;-143.48;85.44;118439.88;5046010;28;20060;-80
2022/12/09 10:40:44;;;;;;;48.72;20.55;;;;;;;-143.48;85.30;118439.88;5047709;28;20021;-77
2022/12/09 10:43:42;;;;;;;43.97;19.27;;;;;;;-143.48;85.43;118439.88;5038952;28;20051;-79
2022/12/09 10:46:17;;;;;;;48.17;19.40;;;;;;;-143.48;86.19;118439.88;5024038;28;20098;-79
2022/12/09 10:48:46;;;;;;;57.13;19.65;;;;;;;-143.48;87.11;118439.88;5036344;28;20035;-80
2022/12/09 10:51:13;;;;;;;56.83;19.55;;;;;;;-143.48;88.17;118439.88;5039115;28;20032;-78
2022/12/09 10:53:47;;;;;;;54.83;21.13;;;;;;;-143.48;88.32;118439.88;5046029;28;20032;-78
2022/12/09 10:56:29;;;;;;;47.72;20.67;;;;;;;-143.48;88.25;118439.88;5037782;28;20049;-77
2022/12/09 10:59:07;;;;;;;44.55;20.35;;;;;;;-143.48;87.63;118439.88;5037727;28;20104;-78